Time;durP1;ratioP1;P1;durP2;ratioP2;P2;SDS_P1;SDS_P2;PMS_P1;PMS_P2;Temp;Humidity;BMP_temperature;BMP_pressure;BME280_temperature;BME280_humidity;BME280_pressure;Samples;Min_cycle;Max_cycle;Signal;HPM_P1;HPM_P2
2022/05/22 00:02:07;;;;;;;4.57;2.20;;;;;;;;;;4949830;28;20134;-68
2022/05/22 00:04:32;;;;;;;5.03;2.15;;;;;;;;;;4944098;28;20098;-70
2022/05/22 00:06:58;;;;;;;5.25;2.45;;;;;;;;;;4944670;28;20046;-67
2022/05/22 00:09:24;;;;;;;4.50;2.55;;;;;;;;;;4943773;28;20123;-69
2022/05/22 00:11:50;;;;;;;3.13;2.50;;;;;;;;;;4944368;28;20058;-68
2022/05/22 00:14:17;;;;;;;5.18;2.30;;;;;;;;;;4943816;28;20031;-68
2022/05/22 00:16:46;;;;;;;5.05;2.17;;;;;;;;;;4949499;28;20098;-69
2022/05/22 00:19:19;;;;;;;3.65;2.22;;;;;;;;;;4945542;28;20031;-68
2022/05/22 00:21:45;;;;;;;;;;;;;;;;;;4944959;28;20039;-68
2022/05/22 00:24:15;;;;;;;3.05;2.42;;;;;;;;;;4943631;28;19915;-67
2022/05/22 00:26:44;;;;;;;4.15;2.40;;;;;;;;;;4944233;28;20039;-68
2022/05/22 00:29:09;;;;;;;3.13;2.80;;;;;;;;;;4942542;28;20845;-68
2022/05/22 00:31:35;;;;;;;4.38;2.40;;;;;;;;;;4948522;28;20814;-67
2022/05/22 00:34:02;;;;;;;3.42;2.03;;;;;;;;;;4943553;28;20047;-68
2022/05/22 00:36:27;;;;;;;5.38;2.60;;;;;;;;;;4943999;28;20106;-68
2022/05/22 00:38:52;;;;;;;3.60;2.13;;;;;;;;;;4945442;28;20182;-68
2022/05/22 00:41:18;;;;;;;5.78;2.10;;;;;;;;;;4949777;28;20050;-68
2022/05/22 00:43:53;;;;;;;3.88;2.35;;;;;;;;;;4934104;28;20116;-69
2022/05/22 00:46:20;;;;;;;5.40;2.75;;;;;;;;;;4948818;28;20039;-68
2022/05/22 00:48:49;;;;;;;3.22;2.10;;;;;;;;;;4926662;28;20042;-68
2022/05/22 00:51:23;;;;;;;4.50;2.33;;;;;;;;;;4943255;28;20031;-68
2022/05/22 00:53:55;;;;;;;2.60;2.00;;;;;;;;;;4950014;28;20042;-69
2022/05/22 00:56:27;;;;;;;4.40;2.13;;;;;;;;;;4943792;28;20035;-68
2022/05/22 00:58:55;;;;;;;4.22;2.30;;;;;;;;;;4941574;28;20089;-68
2022/05/22 01:01:22;;;;;;;3.78;2.10;;;;;;;;;;4948298;28;20035;-68
2022/05/22 01:03:48;;;;;;;4.00;2.30;;;;;;;;;;4946645;28;20043;-69
2022/05/22 01:06:18;;;;;;;2.25;1.92;;;;;;;;;;4926652;28;20404;-68
2022/05/22 01:08:47;;;;;;;3.42;2.55;;;;;;;;;;4926403;28;20039;-68
2022/05/22 01:11:18;;;;;;;5.82;2.28;;;;;;;;;;4942140;29;20146;-69
2022/05/22 01:13:47;;;;;;;4.68;2.40;;;;;;;;;;4922861;28;20039;-68
2022/05/22 01:16:13;;;;;;;2.72;2.50;;;;;;;;;;4920665;28;20058;-68
2022/05/22 01:18:47;;;;;;;3.10;2.40;;;;;;;;;;4941850;28;20043;-69
2022/05/22 01:21:19;;;;;;;4.30;3.40;;;;;;;;;;4926524;28;20433;-68
2022/05/22 01:23:45;;;;;;;7.93;5.78;;;;;;;;;;4943086;28;20144;-68
2022/05/22 01:26:20;;;;;;;6.97;5.45;;;;;;;;;;4925446;28;20050;-68
2022/05/22 01:28:51;;;;;;;;;;;;;;;;;;4926750;28;20127;-68
2022/05/22 01:31:17;;;;;;;4.28;3.05;;;;;;;;;;4941634;28;20008;-69
2022/05/22 01:33:43;;;;;;;2.85;2.58;;;;;;;;;;4925526;29;20059;-69
2022/05/22 01:36:10;;;;;;;3.25;2.90;;;;;;;;;;4941246;28;20046;-69
2022/05/22 01:38:43;;;;;;;6.00;2.97;;;;;;;;;;4925837;28;20484;-69
2022/05/22 01:41:12;;;;;;;6.15;2.90;;;;;;;;;;4925836;28;20031;-68
2022/05/22 01:43:40;;;;;;;3.50;3.13;;;;;;;;;;4941183;28;20039;-68
2022/05/22 01:46:13;;;;;;;4.63;2.80;;;;;;;;;;4954591;28;20062;-68
2022/05/22 01:48:44;;;;;;;4.72;2.60;;;;;;;;;;4928901;28;20073;-68
2022/05/22 01:51:10;;;;;;;3.42;2.88;;;;;;;;;;4942827;28;20119;-68
2022/05/22 01:53:38;;;;;;;3.22;2.33;;;;;;;;;;4922709;28;20077;-68
2022/05/22 01:56:05;;;;;;;3.03;2.55;;;;;;;;;;4925627;28;20341;-68
2022/05/22 01:58:32;;;;;;;2.65;2.35;;;;;;;;;;4929338;29;20039;-68
2022/05/22 02:00:58;;;;;;;4.10;2.75;;;;;;;;;;4937774;28;20037;-68
2022/05/22 02:03:24;;;;;;;2.85;2.65;;;;;;;;;;4925355;28;20059;-69
2022/05/22 02:05:49;;;;;;;5.10;2.53;;;;;;;;;;4945577;28;20564;-69
2022/05/22 02:08:24;;;;;;;5.45;2.83;;;;;;;;;;4926898;28;20035;-69
2022/05/22 02:11:04;;;;;;;5.80;3.20;;;;;;;;;;4948463;28;20039;-68
2022/05/22 02:13:37;;;;;;;3.20;2.70;;;;;;;;;;4946271;28;20043;-69
2022/05/22 02:16:06;;;;;;;6.30;3.10;;;;;;;;;;4931600;28;20053;-68
2022/05/22 02:18:32;;;;;;;6.28;3.22;;;;;;;;;;4927027;28;20097;-68
2022/05/22 02:20:58;;;;;;;6.07;3.47;;;;;;;;;;4936322;28;20034;-68
2022/05/22 02:23:24;;;;;;;4.97;3.10;;;;;;;;;;4929047;28;20046;-68
2022/05/22 02:25:52;;;;;;;4.30;2.90;;;;;;;;;;4928766;28;20098;-69
2022/05/22 02:28:20;;;;;;;5.70;2.70;;;;;;;;;;4946479;28;20031;-68
2022/05/22 02:30:50;;;;;;;6.00;2.97;;;;;;;;;;4935513;28;20073;-68
2022/05/22 02:33:15;;;;;;;4.28;2.90;;;;;;;;;;4935523;28;20090;-68
2022/05/22 02:35:56;;;;;;;4.47;2.50;;;;;;;;;;4945046;28;20039;-68
2022/05/22 02:38:35;;;;;;;4.40;2.80;;;;;;;;;;4929297;28;20047;-68
2022/05/22 02:41:10;;;;;;;3.67;2.50;;;;;;;;;;4945346;28;20032;-68
2022/05/22 02:43:35;;;;;;;5.20;2.50;;;;;;;;;;4928440;28;20110;-68
2022/05/22 02:46:11;;;;;;;4.57;2.35;;;;;;;;;;4933782;28;20122;-69
2022/05/22 02:48:37;;;;;;;3.08;2.70;;;;;;;;;;4929958;28;20034;-68
2022/05/22 02:51:05;;;;;;;2.72;2.40;;;;;;;;;;4928758;28;20028;-69
2022/05/22 02:53:32;;;;;;;2.60;2.40;;;;;;;;;;4932384;28;20043;-67
2022/05/22 02:56:20;;;;;;;4.30;2.50;;;;;;;;;;4946037;28;20051;-68
2022/05/22 02:59:00;;;;;;;3.03;2.67;;;;;;;;;;4946525;28;20113;-68
2022/05/22 03:01:31;;;;;;;3.83;2.55;;;;;;;;;;4933470;28;20089;-67
2022/05/22 03:03:56;;;;;;;5.13;2.63;;;;;;;;;;4946161;28;20035;-68
2022/05/22 03:06:41;;;;;;;4.68;3.00;;;;;;;;;;4950681;28;20034;-68
2022/05/22 03:09:13;;;;;;;6.32;3.00;;;;;;;;;;4944322;28;20027;-68
2022/05/22 03:11:41;;;;;;;3.42;3.13;;;;;;;;;;4928976;28;20035;-68
2022/05/22 03:14:08;;;;;;;12.07;3.53;;;;;;;;;;4931347;28;20086;-68
2022/05/22 03:16:34;;;;;;;5.38;3.10;;;;;;;;;;4927142;28;20094;-68
2022/05/22 03:19:25;;;;;;;3.30;3.00;;;;;;;;;;4941248;28;20054;-68
2022/05/22 03:21:51;;;;;;;6.47;2.83;;;;;;;;;;4927119;28;20039;-68
2022/05/22 03:24:17;;;;;;;4.38;2.92;;;;;;;;;;4926716;28;20035;-69
2022/05/22 03:26:49;;;;;;;5.35;3.03;;;;;;;;;;4927876;28;20039;-69
2022/05/22 03:29:15;;;;;;;3.67;2.60;;;;;;;;;;4943723;28;20051;-68
2022/05/22 03:31:43;;;;;;;10.98;2.95;;;;;;;;;;4949522;28;20155;-68
2022/05/22 03:34:20;;;;;;;7.63;5.03;;;;;;;;;;4942845;28;20042;-68
2022/05/22 03:36:51;;;;;;;5.28;3.80;;;;;;;;;;4926846;28;20043;-68
2022/05/22 03:39:17;;;;;;;4.07;3.22;;;;;;;;;;4927719;28;20039;-67
2022/05/22 03:41:43;;;;;;;3.85;3.40;;;;;;;;;;4944927;28;20038;-68
2022/05/22 03:44:12;;;;;;;6.90;3.78;;;;;;;;;;4943066;28;20146;-68
2022/05/22 03:46:44;;;;;;;3.70;3.13;;;;;;;;;;4932248;28;20996;-69
2022/05/22 03:49:11;;;;;;;5.00;3.40;;;;;;;;;;4951152;28;20085;-69
2022/05/22 03:51:40;;;;;;;5.00;3.40;;;;;;;;;;4944568;28;20034;-69
2022/05/22 03:54:10;;;;;;;5.43;3.20;;;;;;;;;;4926997;28;20035;-67
2022/05/22 03:56:41;;;;;;;7.28;2.80;;;;;;;;;;4927533;28;20035;-67
2022/05/22 03:59:12;;;;;;;3.65;3.00;;;;;;;;;;4926992;28;20073;-67
2022/05/22 04:01:37;;;;;;;5.18;3.47;;;;;;;;;;4942516;28;20117;-68
2022/05/22 04:04:04;;;;;;;6.78;4.00;;;;;;;;;;4926346;28;20042;-68
2022/05/22 04:06:29;;;;;;;7.20;3.75;;;;;;;;;;4927542;28;20043;-68
2022/05/22 04:08:55;;;;;;;3.75;3.13;;;;;;;;;;4943868;28;20046;-68
2022/05/22 04:11:40;;;;;;;6.05;3.72;;;;;;;;;;4926842;29;20046;-67
2022/05/22 04:14:08;;;;;;;4.00;3.60;;;;;;;;;;4926225;28;20436;-68
2022/05/22 04:16:36;;;;;;;6.38;4.40;;;;;;;;;;4932165;28;20107;-68
2022/05/22 04:19:01;;;;;;;5.78;3.97;;;;;;;;;;4944053;28;20567;-68
2022/05/22 04:21:27;;;;;;;6.18;4.47;;;;;;;;;;4955658;28;20031;-68
2022/05/22 04:26:47;;;;;;;7.03;4.38;;;;;;;;;;4926778;29;20038;-69
2022/05/22 04:29:12;;;;;;;4.78;4.03;;;;;;;;;;4926112;28;20035;-69
2022/05/22 04:31:38;;;;;;;6.55;4.05;;;;;;;;;;4929979;28;20035;-68
2022/05/22 04:34:30;;;;;;;5.13;3.83;;;;;;;;;;4937941;28;20146;-69
2022/05/22 04:37:06;;;;;;;5.95;3.80;;;;;;;;;;4926745;28;20051;-69
2022/05/22 04:39:54;;;;;;;5.65;3.70;;;;;;;;;;4942425;29;20043;-69
2022/05/22 04:42:19;;;;;;;6.15;3.60;;;;;;;;;;4941614;28;20065;-69
2022/05/22 04:44:45;;;;;;;8.85;3.67;;;;;;;;;;4925871;28;20075;-69
2022/05/22 04:47:29;;;;;;;5.20;3.78;;;;;;;;;;4944015;28;20515;-68
2022/05/22 04:50:16;;;;;;;4.60;3.85;;;;;;;;;;4943428;28;20514;-68
2022/05/22 04:53:00;;;;;;;6.78;4.00;;;;;;;;;;4942202;28;20058;-68
2022/05/22 04:55:26;;;;;;;3.53;3.08;;;;;;;;;;4944020;28;20069;-68
2022/05/22 04:57:52;;;;;;;8.45;3.42;;;;;;;;;;4926610;29;20396;-69
2022/05/22 05:00:18;;;;;;;3.35;3.00;;;;;;;;;;4928472;28;20035;-69
2022/05/22 05:02:54;;;;;;;6.38;2.50;;;;;;;;;;4943967;28;20848;-70
2022/05/22 05:05:20;;;;;;;4.00;2.20;;;;;;;;;;4926020;28;20109;-69
2022/05/22 05:07:45;;;;;;;3.17;2.10;;;;;;;;;;4942580;28;20046;-69
2022/05/22 05:10:40;;;;;;;3.25;2.45;;;;;;;;;;4926264;28;20035;-69
2022/05/22 05:13:25;;;;;;;6.88;2.58;;;;;;;;;;4942023;28;20023;-70
2022/05/22 05:16:04;;;;;;;5.28;2.65;;;;;;;;;;4934504;28;20043;-69
2022/05/22 05:18:36;;;;;;;4.38;2.28;;;;;;;;;;4926413;28;20078;-69
2022/05/22 05:21:07;;;;;;;3.30;2.40;;;;;;;;;;4926515;28;20046;-69
2022/05/22 05:23:33;;;;;;;5.07;2.47;;;;;;;;;;4941643;28;20526;-68
2022/05/22 05:26:06;;;;;;;12.98;2.95;;;;;;;;;;4929533;28;20054;-69
2022/05/22 05:28:32;;;;;;;4.05;2.67;;;;;;;;;;4940485;28;20039;-70
2022/05/22 05:30:58;;;;;;;4.85;2.25;;;;;;;;;;4936187;28;20531;-69
2022/05/22 05:33:24;;;;;;;2.60;2.30;;;;;;;;;;4924184;28;20030;-69
2022/05/22 05:36:11;;;;;;;2.42;1.90;;;;;;;;;;4941650;28;20051;-69
2022/05/22 05:38:54;;;;;;;7.68;2.65;;;;;;;;;;4941647;28;20170;-69
2022/05/22 05:41:36;;;;;;;5.38;2.20;;;;;;;;;;4924425;28;20500;-70
2022/05/22 05:44:05;;;;;;;4.78;2.00;;;;;;;;;;4939754;28;20039;-69
2022/05/22 05:46:33;;;;;;;5.85;1.95;;;;;;;;;;4929662;28;20035;-69
2022/05/22 05:49:08;;;;;;;5.80;2.10;;;;;;;;;;4921599;28;20038;-69
2022/05/22 05:51:36;;;;;;;3.38;1.80;;;;;;;;;;4933927;28;20640;-69
2022/05/22 05:54:02;;;;;;;5.97;1.83;;;;;;;;;;4927569;28;20103;-69
2022/05/22 05:57:06;;;;;;;4.10;1.80;;;;;;;;;;4899136;29;20044;-69
2022/05/22 05:59:39;;;;;;;12.68;1.92;;;;;;;;;;4883066;29;20044;-69
2022/05/22 06:02:19;;;;;;;4.05;1.85;;;;;;;;;;4912495;28;20039;-69
2022/05/22 06:04:45;;;;;;;2.67;1.90;;;;;;;;;;4927127;28;20082;-69
2022/05/22 06:07:10;;;;;;;3.20;1.65;;;;;;;;;;4928679;28;20039;-69
2022/05/22 06:09:37;;;;;;;4.25;1.60;;;;;;;;;;4915169;28;20039;-69
2022/05/22 06:12:19;;;;;;;4.75;1.85;;;;;;;;;;4923392;28;20031;-69
2022/05/22 06:14:59;;;;;;;4.20;2.00;;;;;;;;;;4928579;28;20035;-67
2022/05/22 06:17:39;;;;;;;3.80;1.85;;;;;;;;;;4948455;28;20506;-68
2022/05/22 06:20:08;;;;;;;7.72;1.92;;;;;;;;;;4924055;28;20114;-70
2022/05/22 06:22:42;;;;;;;4.60;2.00;;;;;;;;;;4924559;28;20039;-69
2022/05/22 06:25:28;;;;;;;2.63;1.80;;;;;;;;;;4941532;28;20074;-69
2022/05/22 06:28:17;;;;;;;3.00;1.75;;;;;;;;;;4942417;28;20043;-68
2022/05/22 06:31:03;;;;;;;2.90;1.10;;;;;;;;;;4947299;28;20081;-68
2022/05/22 06:33:49;;;;;;;4.55;1.30;;;;;;;;;;4936403;28;20412;-68
2022/05/22 06:36:26;;;;;;;5.13;1.80;;;;;;;;;;4941239;28;20027;-68
2022/05/22 06:42:34;;;;;;;6.72;1.52;;;;;;;;;;4944625;28;20127;-68
2022/05/22 06:45:26;;;;;;;4.97;1.30;;;;;;;;;;4922349;28;20050;-68
2022/05/22 06:48:09;;;;;;;3.13;1.27;;;;;;;;;;4942721;28;20784;-68
2022/05/22 06:50:54;;;;;;;5.57;1.55;;;;;;;;;;4942445;28;20058;-68
2022/05/22 06:53:38;;;;;;;6.35;1.42;;;;;;;;;;4927595;28;20035;-69
2022/05/22 06:56:26;;;;;;;3.50;1.50;;;;;;;;;;4946060;28;20075;-70
2022/05/22 06:59:00;;;;;;;2.25;1.30;;;;;;;;;;4946774;28;20046;-69
2022/05/22 07:01:45;;;;;;;3.08;1.27;;;;;;;;;;4932463;28;20027;-69
2022/05/22 07:04:36;;;;;;;2.13;1.15;;;;;;;;;;4943031;28;20471;-69
2022/05/22 07:07:22;;;;;;;3.50;1.45;;;;;;;;;;4944451;28;20035;-71
2022/05/22 07:10:06;;;;;;;1.40;1.20;;;;;;;;;;4947293;28;20467;-69
2022/05/22 07:13:01;;;;;;;1.58;1.30;;;;;;;;;;4928436;28;20055;-68
2022/05/22 07:16:01;;;;;;;3.72;1.20;;;;;;;;;;4927706;28;20043;-70
2022/05/22 07:18:34;;;;;;;2.53;1.40;;;;;;;;;;4928429;28;20620;-68
2022/05/22 07:21:20;;;;;;;3.83;1.60;;;;;;;;;;4936003;28;20031;-68
2022/05/22 07:24:08;;;;;;;2.63;1.35;;;;;;;;;;4930826;28;20487;-69
2022/05/22 07:26:54;;;;;;;2.15;1.13;;;;;;;;;;4941097;28;20046;-69
2022/05/22 07:29:42;;;;;;;2.80;1.65;;;;;;;;;;4952709;28;20946;-68
2022/05/22 07:32:27;;;;;;;2.72;1.10;;;;;;;;;;4933224;28;20042;-69
2022/05/22 07:35:11;;;;;;;3.95;1.20;;;;;;;;;;4945133;28;21003;-69
2022/05/22 07:38:10;;;;;;;3.55;1.10;;;;;;;;;;4931018;28;20038;-70
2022/05/22 07:40:53;;;;;;;2.83;1.20;;;;;;;;;;4935093;28;20035;-69
2022/05/22 07:43:51;;;;;;;1.45;0.98;;;;;;;;;;4911926;28;20054;-69
2022/05/22 07:46:24;;;;;;;3.50;1.20;;;;;;;;;;4928412;28;20052;-69
2022/05/22 07:48:53;;;;;;;4.00;1.55;;;;;;;;;;4931931;28;20097;-70
2022/05/22 07:51:28;;;;;;;1.52;1.27;;;;;;;;;;4949337;28;20035;-69
2022/05/22 07:54:19;;;;;;;5.95;1.50;;;;;;;;;;4946903;28;20125;-68
2022/05/22 07:57:10;;;;;;;7.07;1.27;;;;;;;;;;4944471;28;20039;-69
2022/05/22 07:59:53;;;;;;;4.30;1.50;;;;;;;;;;4927958;28;20847;-69
2022/05/22 08:02:39;;;;;;;3.10;1.48;;;;;;;;;;4948157;28;20138;-70
2022/05/22 08:05:06;;;;;;;3.00;1.00;;;;;;;;;;4926363;28;20614;-69
2022/05/22 08:07:44;;;;;;;3.72;1.50;;;;;;;;;;4927463;28;20828;-70
2022/05/22 08:10:33;;;;;;;2.03;1.17;;;;;;;;;;4935398;28;20508;-68
2022/05/22 08:13:05;;;;;;;2.88;1.45;;;;;;;;;;4934379;28;20045;-68
2022/05/22 08:15:34;;;;;;;2.78;1.35;;;;;;;;;;4927900;28;20592;-69
2022/05/22 08:18:32;;;;;;;2.20;1.27;;;;;;;;;;4920518;28;20051;-68
2022/05/22 08:20:57;;;;;;;2.55;1.10;;;;;;;;;;4926862;28;20035;-66
2022/05/22 08:23:25;;;;;;;2.50;1.10;;;;;;;;;;4926133;28;20038;-66
2022/05/22 08:25:50;;;;;;;6.35;1.27;;;;;;;;;;4944127;28;20508;-68
2022/05/22 08:28:17;;;;;;;4.70;1.20;;;;;;;;;;4927158;28;20045;-68
2022/05/22 08:30:43;;;;;;;1.73;0.90;;;;;;;;;;4948641;28;20041;-68
2022/05/22 08:33:09;;;;;;;2.75;1.10;;;;;;;;;;4941822;29;20043;-69
2022/05/22 08:35:38;;;;;;;1.98;1.10;;;;;;;;;;4943794;28;20039;-68
2022/05/22 08:38:04;;;;;;;2.53;1.27;;;;;;;;;;4943735;28;20682;-68
2022/05/22 08:40:48;;;;;;;3.15;1.30;;;;;;;;;;4943540;28;20039;-70
2022/05/22 08:43:16;;;;;;;3.33;1.23;;;;;;;;;;4943332;28;20035;-68
2022/05/22 08:45:45;;;;;;;3.40;1.40;;;;;;;;;;4950852;28;20046;-69
2022/05/22 08:48:11;;;;;;;3.00;1.20;;;;;;;;;;4940208;28;20043;-69
2022/05/22 08:50:37;;;;;;;2.70;1.20;;;;;;;;;;4940827;28;20066;-69
2022/05/22 08:53:08;;;;;;;5.65;1.00;;;;;;;;;;4940375;28;20039;-69
2022/05/22 09:01:53;;;;;;;1.73;1.00;;;;;;;;;;4929570;28;20102;-69
2022/05/22 09:04:43;;;;;;;1.63;1.10;;;;;;;;;;4942224;28;20042;-68
2022/05/22 09:07:11;;;;;;;2.55;0.93;;;;;;;;;;4942986;28;20075;-69
2022/05/22 09:09:39;;;;;;;1.17;1.02;;;;;;;;;;4951224;28;20039;-69
2022/05/22 09:12:18;;;;;;;4.47;1.30;;;;;;;;;;4943048;28;20519;-69
2022/05/22 09:14:58;;;;;;;1.13;0.77;;;;;;;;;;4942047;28;20381;-69
2022/05/22 09:17:30;;;;;;;2.28;1.02;;;;;;;;;;4947897;28;20610;-70
2022/05/22 09:20:04;;;;;;;;;;;;;;;;;;4951582;28;20035;-69
2022/05/22 09:23:06;;;;;;;4.50;1.00;;;;;;;;;;4946357;28;19989;-69
2022/05/22 09:25:57;;;;;;;2.55;1.00;;;;;;;;;;4939604;28;20050;-70
2022/05/22 09:28:44;;;;;;;2.20;1.00;;;;;;;;;;4947326;28;20031;-69
2022/05/22 09:31:18;;;;;;;1.75;1.02;;;;;;;;;;4945742;28;20039;-69
2022/05/22 09:33:50;;;;;;;3.42;1.35;;;;;;;;;;4943076;28;20098;-67
2022/05/22 09:36:16;;;;;;;2.20;1.17;;;;;;;;;;4943131;28;20066;-67
2022/05/22 09:39:03;;;;;;;1.98;1.08;;;;;;;;;;4942621;28;20073;-67
2022/05/22 09:41:50;;;;;;;1.70;1.00;;;;;;;;;;4948561;28;20053;-67
2022/05/22 09:44:49;;;;;;;2.35;1.10;;;;;;;;;;4942748;28;20038;-67
2022/05/22 09:47:36;;;;;;;2.55;0.90;;;;;;;;;;4948421;28;20031;-67
2022/05/22 09:50:10;;;;;;;2.03;1.15;;;;;;;;;;4942085;28;20484;-67
2022/05/22 09:52:59;;;;;;;4.35;1.33;;;;;;;;;;4943150;28;20480;-66
2022/05/22 09:55:27;;;;;;;2.85;0.98;;;;;;;;;;4942031;28;20129;-67
2022/05/22 09:58:23;;;;;;;1.48;0.90;;;;;;;;;;4942876;28;20047;-68
2022/05/22 10:01:00;;;;;;;2.58;1.30;;;;;;;;;;4942591;28;20035;-67
2022/05/22 10:03:53;;;;;;;2.05;1.13;;;;;;;;;;4947959;28;20047;-67
2022/05/22 10:06:40;;;;;;;5.85;0.95;;;;;;;;;;4942650;28;20101;-67
2022/05/22 10:09:41;;;;;;;1.80;0.90;;;;;;;;;;4942978;28;20485;-67
2022/05/22 10:13:04;;;;;;;1.73;0.80;;;;;;;;;;4946515;28;20035;-67
2022/05/22 10:15:45;;;;;;;1.45;0.90;;;;;;;;;;4874953;29;20549;-69
2022/05/22 10:18:31;;;;;;;1.73;1.10;;;;;;;;;;4864797;29;20069;-69
2022/05/22 10:21:21;;;;;;;2.95;1.00;;;;;;;;;;4919875;28;21063;-68
2022/05/22 10:24:09;;;;;;;2.10;0.98;;;;;;;;;;4949314;28;20410;-68
2022/05/22 10:26:55;;;;;;;1.27;1.00;;;;;;;;;;4952562;28;20158;-68
2022/05/22 10:29:29;;;;;;;4.00;0.98;;;;;;;;;;4946586;28;20031;-67
2022/05/22 10:32:00;;;;;;;1.45;0.90;;;;;;;;;;4951375;28;20053;-68
2022/05/22 10:34:38;;;;;;;1.45;0.98;;;;;;;;;;4949254;28;20456;-66
2022/05/22 10:37:13;;;;;;;1.55;0.70;;;;;;;;;;4946029;28;21534;-67
2022/05/22 10:39:38;;;;;;;3.08;1.10;;;;;;;;;;4946542;28;20106;-68
2022/05/22 10:45:07;;;;;;;4.95;1.20;;;;;;;;;;4944850;28;20046;-68
2022/05/22 10:47:34;;;;;;;1.60;1.00;;;;;;;;;;4945996;28;20043;-68
2022/05/22 10:50:12;;;;;;;2.08;1.00;;;;;;;;;;4948016;28;20039;-67
2022/05/22 10:52:37;;;;;;;1.75;1.00;;;;;;;;;;4950495;28;20584;-67
2022/05/22 10:55:04;;;;;;;3.70;1.40;;;;;;;;;;4945502;28;20535;-67
2022/05/22 10:57:32;;;;;;;1.27;0.98;;;;;;;;;;4956227;28;20053;-67
2022/05/22 11:00:09;;;;;;;1.35;0.95;;;;;;;;;;4947594;28;20045;-66
2022/05/22 11:02:35;;;;;;;4.03;1.00;;;;;;;;;;4945014;28;20031;-67
2022/05/22 11:05:00;;;;;;;1.13;1.00;;;;;;;;;;4945399;28;20053;-68
2022/05/22 11:07:53;;;;;;;1.75;1.10;;;;;;;;;;4945167;28;20031;-68
2022/05/22 11:10:39;;;;;;;1.38;0.93;;;;;;;;;;4951279;28;20043;-68
2022/05/22 11:13:10;;;;;;;4.15;1.00;;;;;;;;;;4945957;28;20035;-68
2022/05/22 11:15:40;;;;;;;;;;;;;;;;;;4949934;28;20042;-69
2022/05/22 11:18:07;;;;;;;3.92;1.02;;;;;;;;;;4945604;28;20096;-68
2022/05/22 11:20:33;;;;;;;2.97;1.10;;;;;;;;;;4945630;28;20031;-69
2022/05/22 11:23:29;;;;;;;1.02;0.93;;;;;;;;;;4945666;28;20164;-67
2022/05/22 11:26:03;;;;;;;1.73;1.02;;;;;;;;;;4945359;28;20043;-69
2022/05/22 11:28:43;;;;;;;11.98;1.02;;;;;;;;;;4944506;28;20039;-68
2022/05/22 11:31:37;;;;;;;0.93;0.80;;;;;;;;;;4947367;28;20131;-69
2022/05/22 11:34:18;;;;;;;2.45;0.90;;;;;;;;;;4945130;28;20047;-68
2022/05/22 11:37:03;;;;;;;1.83;1.02;;;;;;;;;;4945164;28;20035;-69
2022/05/22 11:39:47;;;;;;;3.70;1.20;;;;;;;;;;4944383;28;20456;-69
2022/05/22 11:42:32;;;;;;;1.45;0.90;;;;;;;;;;4944759;28;20031;-68
2022/05/22 11:45:12;;;;;;;2.95;1.30;;;;;;;;;;4944674;28;20047;-68
2022/05/22 11:48:19;;;;;;;6.25;0.90;;;;;;;;;;4945529;28;20122;-68
2022/05/22 11:51:06;;;;;;;2.22;1.05;;;;;;;;;;4943760;28;20027;-67
2022/05/22 11:53:53;;;;;;;2.78;1.02;;;;;;;;;;4952116;28;20564;-67
2022/05/22 11:56:45;;;;;;;2.95;1.00;;;;;;;;;;4944237;28;20039;-66
2022/05/22 11:59:27;;;;;;;4.57;1.20;;;;;;;;;;4941913;28;20038;-70
2022/05/22 12:01:52;;;;;;;;;;;;;;;;;;4953121;28;20118;-70
2022/05/22 12:04:36;;;;;;;1.17;1.08;;;;;;;;;;4942341;28;20068;-70
2022/05/22 12:07:17;;;;;;;1.30;1.00;;;;;;;;;;4943135;28;20146;-70
2022/05/22 12:09:48;;;;;;;3.60;1.00;;;;;;;;;;4950468;28;20488;-70
2022/05/22 12:12:40;;;;;;;1.95;1.00;;;;;;;;;;4941940;28;20444;-70
2022/05/22 12:15:23;;;;;;;3.25;0.95;;;;;;;;;;4942275;28;20035;-70
2022/05/22 12:17:53;;;;;;;2.13;0.77;;;;;;;;;;4946413;28;20039;-69
2022/05/22 12:20:27;;;;;;;4.55;1.05;;;;;;;;;;4942796;28;20035;-69
2022/05/22 12:23:12;;;;;;;1.13;0.98;;;;;;;;;;4951692;28;20035;-69
2022/05/22 12:25:52;;;;;;;6.10;1.08;;;;;;;;;;4950737;28;20039;-69
2022/05/22 12:28:39;;;;;;;1.50;0.88;;;;;;;;;;4951144;28;20034;-69
2022/05/22 12:31:20;;;;;;;3.08;0.80;;;;;;;;;;4952524;28;20066;-70
2022/05/22 12:33:46;;;;;;;2.00;0.95;;;;;;;;;;4952041;28;20404;-69
2022/05/22 12:36:12;;;;;;;1.23;0.80;;;;;;;;;;4949694;28;20570;-70
2022/05/22 12:38:51;;;;;;;1.75;0.90;;;;;;;;;;4950499;28;20030;-70
2022/05/22 12:41:29;;;;;;;2.90;0.95;;;;;;;;;;4950386;28;21151;-69
2022/05/22 12:43:56;;;;;;;4.88;1.10;;;;;;;;;;4948902;28;20034;-69
2022/05/22 12:46:23;;;;;;;1.92;0.90;;;;;;;;;;4947576;28;20046;-69
2022/05/22 12:48:51;;;;;;;2.80;1.00;;;;;;;;;;4947475;28;20039;-69
2022/05/22 12:51:19;;;;;;;3.97;1.10;;;;;;;;;;4949612;28;20054;-69
2022/05/22 12:53:49;;;;;;;1.85;0.80;;;;;;;;;;4951000;28;20031;-69
2022/05/22 12:56:35;;;;;;;2.55;1.05;;;;;;;;;;4952616;28;20035;-70
2022/05/22 12:59:16;;;;;;;2.92;0.73;;;;;;;;;;4951387;28;20034;-69
2022/05/22 13:01:42;;;;;;;1.60;0.90;;;;;;;;;;4950727;28;20548;-69
2022/05/22 13:04:20;;;;;;;2.17;0.93;;;;;;;;;;4944232;28;20475;-70
2022/05/22 13:07:06;;;;;;;1.23;0.80;;;;;;;;;;4950921;28;20054;-69
2022/05/22 13:09:32;;;;;;;3.33;1.10;;;;;;;;;;4948578;28;20135;-70
2022/05/22 13:12:00;;;;;;;2.75;0.90;;;;;;;;;;4951789;28;20070;-69
2022/05/22 13:14:36;;;;;;;2.03;1.23;;;;;;;;;;4950021;28;20038;-69
2022/05/22 13:17:03;;;;;;;3.35;1.83;;;;;;;;;;4950577;28;20054;-69
2022/05/22 13:19:32;;;;;;;1.92;1.20;;;;;;;;;;4949312;28;20246;-69
2022/05/22 13:22:09;;;;;;;3.65;2.30;;;;;;;;;;4949756;28;20179;-69
2022/05/22 13:24:38;;;;;;;3.45;0.75;;;;;;;;;;4948323;28;20098;-69
2022/05/22 13:27:04;;;;;;;3.30;1.00;;;;;;;;;;4942233;28;20062;-69
2022/05/22 13:29:49;;;;;;;1.85;0.80;;;;;;;;;;4940899;28;20042;-69
2022/05/22 13:32:21;;;;;;;0.88;0.73;;;;;;;;;;4950499;28;20089;-69
2022/05/22 13:34:53;;;;;;;2.90;0.90;;;;;;;;;;4944094;28;20106;-69
2022/05/22 13:37:29;;;;;;;2.17;0.90;;;;;;;;;;4942765;28;20042;-70
2022/05/22 13:40:10;;;;;;;1.63;0.80;;;;;;;;;;4942778;28;20063;-70
2022/05/22 13:42:54;;;;;;;1.55;0.90;;;;;;;;;;4942036;28;20043;-69
2022/05/22 13:45:22;;;;;;;1.63;1.00;;;;;;;;;;4942736;28;20436;-69
2022/05/22 13:48:22;;;;;;;1.17;0.80;;;;;;;;;;4947357;28;20031;-69
2022/05/22 13:53:49;;;;;;;1.75;1.00;;;;;;;;;;4948765;28;20050;-69
2022/05/22 13:56:16;;;;;;;0.93;0.88;;;;;;;;;;4943824;28;20031;-69
2022/05/22 13:58:43;;;;;;;1.77;1.00;;;;;;;;;;4941664;28;20043;-69
2022/05/22 14:01:14;;;;;;;2.63;0.90;;;;;;;;;;4951874;28;20905;-69
2022/05/22 14:03:47;;;;;;;2.30;0.87;;;;;;;;;;4951728;28;20137;-69
2022/05/22 14:06:15;;;;;;;2.30;0.75;;;;;;;;;;4956693;28;20593;-69
2022/05/22 14:08:47;;;;;;;3.13;1.13;;;;;;;;;;4946457;28;20047;-69
2022/05/22 14:11:21;;;;;;;3.05;0.90;;;;;;;;;;4946767;28;20043;-68
2022/05/22 14:13:50;;;;;;;2.38;1.10;;;;;;;;;;4950019;28;20042;-71
2022/05/22 14:16:22;;;;;;;1.92;0.82;;;;;;;;;;4948391;28;20039;-70
2022/05/22 14:19:07;;;;;;;0.75;0.70;;;;;;;;;;4945311;28;20039;-70
2022/05/22 14:21:35;;;;;;;2.30;0.80;;;;;;;;;;4944906;28;20047;-69
2022/05/22 14:26:50;;;;;;;3.97;1.10;;;;;;;;;;4952744;28;20606;-68
2022/05/22 14:29:20;;;;;;;4.13;1.05;;;;;;;;;;4945240;28;20134;-70
2022/05/22 14:31:48;;;;;;;1.08;0.70;;;;;;;;;;4949849;28;20039;-70
2022/05/22 14:34:21;;;;;;;2.53;0.80;;;;;;;;;;4944932;28;20575;-70
2022/05/22 14:36:55;;;;;;;1.20;0.85;;;;;;;;;;4943702;28;20042;-70
2022/05/22 14:39:20;;;;;;;2.15;0.88;;;;;;;;;;4944946;28;20401;-69
2022/05/22 14:41:48;;;;;;;2.22;0.73;;;;;;;;;;4944646;28;20039;-70
2022/05/22 14:44:17;;;;;;;1.92;0.88;;;;;;;;;;4944557;28;20043;-69
2022/05/22 14:46:50;;;;;;;1.23;0.90;;;;;;;;;;4949222;28;20731;-70
2022/05/22 14:49:32;;;;;;;1.58;1.00;;;;;;;;;;4945480;28;20134;-69
2022/05/22 14:52:25;;;;;;;1.55;0.95;;;;;;;;;;4945083;28;20035;-69
2022/05/22 14:54:57;;;;;;;2.72;1.20;;;;;;;;;;4940719;28;20055;-69
2022/05/22 14:57:33;;;;;;;2.35;1.10;;;;;;;;;;4945403;28;20864;-70
2022/05/22 15:00:05;;;;;;;2.22;1.00;;;;;;;;;;4953166;28;20046;-70
2022/05/22 15:02:52;;;;;;;0.88;0.80;;;;;;;;;;4945198;28;20336;-72
2022/05/22 15:05:25;;;;;;;2.65;0.90;;;;;;;;;;4943078;28;20046;-70
2022/05/22 15:08:01;;;;;;;1.77;0.77;;;;;;;;;;4954200;28;20122;-70
2022/05/22 15:10:31;;;;;;;2.00;0.90;;;;;;;;;;4948932;28;20039;-68
2022/05/22 15:13:00;;;;;;;2.05;1.00;;;;;;;;;;4943385;28;20057;-71
2022/05/22 15:15:35;;;;;;;3.47;1.13;;;;;;;;;;4947565;28;20100;-72
2022/05/22 15:18:04;;;;;;;1.65;0.80;;;;;;;;;;4946453;28;20045;-73
2022/05/22 15:20:33;;;;;;;1.88;0.90;;;;;;;;;;4955477;28;20109;-71
2022/05/22 15:25:50;;;;;;;3.22;0.90;;;;;;;;;;4944609;28;20110;-72
2022/05/22 15:28:16;;;;;;;2.20;0.80;;;;;;;;;;4954163;28;20377;-69
2022/05/22 15:30:59;;;;;;;1.70;1.00;;;;;;;;;;4945505;28;20527;-68
2022/05/22 15:33:35;;;;;;;1.23;1.00;;;;;;;;;;4950736;28;20134;-69
2022/05/22 15:36:17;;;;;;;3.38;1.00;;;;;;;;;;4944465;28;20031;-69
2022/05/22 15:39:07;;;;;;;2.08;0.90;;;;;;;;;;4927807;29;20545;-70
2022/05/22 15:41:45;;;;;;;2.70;0.90;;;;;;;;;;4946726;28;20326;-69
2022/05/22 15:44:14;;;;;;;2.90;1.05;;;;;;;;;;4942572;28;20041;-68
2022/05/22 15:46:49;;;;;;;0.88;0.65;;;;;;;;;;4949523;28;20051;-67
2022/05/22 15:52:07;;;;;;;1.65;0.90;;;;;;;;;;4948769;28;20122;-69
2022/05/22 15:54:37;;;;;;;1.92;1.05;;;;;;;;;;4938676;28;20113;-68
2022/05/22 15:57:04;;;;;;;1.65;1.00;;;;;;;;;;4942662;28;20094;-67